»·PEaware :: N6182G KVCV-KLGB

N6182G :: KVCV-KLGB

FLIGHT INFORMATION

Flight Status: Arrived
Operator: Privately registered:
United States
More flights under this callsign
Pilot: Bernard S. (25498)
Aircraft: CESSNA 182 SKYLANE
(C182)
More flights by this aircraft type
Origin: KVCV Socal Logistics
United States
Destination: KLGB Long Beach
United States
More flights between these airports :: More routes between these airports
Route: PMD VNY
File this flight plan on PilotEdge
Remarks: Flight following pls
Altitude:
(Current/Filed)
8,000ft
Speed:
(Current/Filed)
120kts
Departed: 24-Oct-20 12:25 PM
Arrived: 24-Oct-20 01:47 PM
Distance/Time
Traveled:
60nm/1:22
Distance/Time
To Go:
Arrived

Flight Plot

Page will automatically refresh every two minutes.

Flight plan parsing failed; only flown route is shown


Map Options




Map Legend


Flown Route
Filed Route
Departure Airport
Arrival Airport
Navaid (VOR, NDB)
Fix

Horizontal Profiles

Position Reports

Time Latitude Longitude Heading Altitude Ground
Speed
24-Oct-20 12:09 34.583378 -117.379832 135 2854ft 0kts
24-Oct-20 12:10 34.583375 -117.379829 135 2854ft 0kts
24-Oct-20 12:11 34.583373 -117.379826 135 2854ft 0kts
24-Oct-20 12:12 34.583370 -117.379824 135 2854ft 0kts
24-Oct-20 12:13 34.583368 -117.379821 135 2854ft 0kts
24-Oct-20 12:14 34.583365 -117.379818 135 2854ft 0kts
24-Oct-20 12:15 34.583422 -117.379885 135 2854ft 2kts
24-Oct-20 12:16 34.583498 -117.379975 132 2854ft 1kts
24-Oct-20 12:17 34.584745 -117.381361 326 2854ft 8kts
24-Oct-20 12:18 34.588571 -117.377155 42 2854ft 23kts
24-Oct-20 12:19 34.592734 -117.372142 25 2854ft 1kts
24-Oct-20 12:20 34.594585 -117.372287 354 2854ft 0kts
24-Oct-20 12:21 34.594588 -117.372288 354 2854ft 0kts
24-Oct-20 12:22 34.594833 -117.372322 351 2854ft 0kts
24-Oct-20 12:23 34.594837 -117.372322 351 2854ft 0kts
24-Oct-20 12:24 34.594431 -117.373802 224 2854ft 45kts
24-Oct-20 12:25 34.580797 -117.394268 276 3759ft 83kts
24-Oct-20 12:26 34.600541 -117.407163 340 4763ft 94kts
24-Oct-20 12:27 34.625063 -117.420768 340 6011ft 100kts
24-Oct-20 12:28 34.653110 -117.434110 334 7036ft 118kts
24-Oct-20 12:29 34.683962 -117.448780 335 7586ft 134kts
24-Oct-20 12:30 34.722781 -117.466348 336 7581ft 155kts
24-Oct-20 12:31 34.763382 -117.485650 335 7571ft 154kts
24-Oct-20 12:32 34.803365 -117.505155 333 7564ft 155kts
24-Oct-20 12:33 34.826748 -117.538408 249 7561ft 140kts
24-Oct-20 12:34 34.811120 -117.582787 243 7568ft 141kts
24-Oct-20 12:35 34.794274 -117.625762 243 7545ft 137kts
24-Oct-20 12:36 34.778102 -117.667306 243 7549ft 138kts
24-Oct-20 12:37 34.761155 -117.710767 244 7572ft 139kts
24-Oct-20 12:38 34.744889 -117.752920 243 7545ft 134kts
24-Oct-20 12:39 34.730112 -117.792373 244 7530ft 131kts
24-Oct-20 12:40 34.714809 -117.832345 244 7541ft 132kts
24-Oct-20 12:41 34.698663 -117.875482 248 7582ft 144kts
24-Oct-20 12:42 34.684015 -117.920858 248 7577ft 143kts
24-Oct-20 12:43 34.669396 -117.966261 246 7572ft 143kts
24-Oct-20 12:44 34.652020 -118.009965 234 7541ft 140kts
24-Oct-20 12:45 34.629343 -118.046685 234 7545ft 136kts
24-Oct-20 12:46 34.602368 -118.079087 221 7565ft 137kts
24-Oct-20 12:47 34.575332 -118.112548 236 7571ft 139kts
24-Oct-20 12:48 34.549611 -118.148117 228 7554ft 137kts
24-Oct-20 12:49 34.524671 -118.182903 230 7497ft 135kts
24-Oct-20 12:50 34.500913 -118.216962 230 7745ft 122kts
24-Oct-20 12:51 34.478678 -118.244605 223 8557ft 108kts
24-Oct-20 12:52 34.456596 -118.268218 223 9348ft 97kts
24-Oct-20 12:53 34.435986 -118.281933 202 10127ft 73kts
24-Oct-20 12:54 34.414452 -118.292160 205 10106ft 120kts
24-Oct-20 12:55 34.383152 -118.309998 215 10027ft 122kts
24-Oct-20 12:56 34.357661 -118.335454 228 10036ft 119kts
24-Oct-20 12:57 34.336297 -118.366176 231 10045ft 119kts
24-Oct-20 12:58 34.313731 -118.395966 225 10041ft 120kts
24-Oct-20 12:59 34.289499 -118.423776 224 10047ft 119kts
24-Oct-20 13:00 34.264777 -118.450963 217 10046ft 120kts
24-Oct-20 13:01 34.237521 -118.474414 217 10012ft 119kts
24-Oct-20 13:02 34.208135 -118.472104 144 10011ft 134kts
24-Oct-20 13:03 34.179838 -118.442922 169 10002ft 128kts
24-Oct-20 13:04 34.148323 -118.425285 144 10005ft 134kts
24-Oct-20 13:05 34.120222 -118.395260 145 10001ft 135kts
24-Oct-20 13:06 34.092040 -118.365321 145 10009ft 135kts
24-Oct-20 13:07 34.066310 -118.338915 154 10480ft 109kts
24-Oct-20 13:08 34.038670 -118.316313 153 10502ft 127kts
24-Oct-20 13:09 34.008615 -118.292381 153 10500ft 130kts
24-Oct-20 13:10 33.978219 -118.268085 154 10499ft 131kts
24-Oct-20 13:11 33.947902 -118.243911 154 10501ft 131kts
24-Oct-20 13:12 33.917390 -118.219730 154 10502ft 130kts
24-Oct-20 13:13 33.886974 -118.195768 154 10502ft 131kts
24-Oct-20 13:14 33.856308 -118.171777 154 10484ft 132kts
24-Oct-20 13:15 33.825132 -118.176550 206 10483ft 117kts
24-Oct-20 13:16 33.794895 -118.192177 206 10480ft 117kts
24-Oct-20 13:17 33.764922 -118.207937 207 10481ft 117kts
24-Oct-20 13:18 33.734990 -118.223792 207 10484ft 117kts
24-Oct-20 13:19 33.705098 -118.239744 207 10500ft 116kts
24-Oct-20 13:20 33.675385 -118.255713 207 10505ft 117kts
24-Oct-20 13:21 33.645580 -118.271863 207 10508ft 117kts
24-Oct-20 13:22 33.615162 -118.288530 207 10512ft 124kts
24-Oct-20 13:23 33.583622 -118.306112 208 10515ft 125kts
24-Oct-20 13:24 33.551981 -118.323929 208 10521ft 125kts
24-Oct-20 13:25 33.520292 -118.341905 208 10527ft 125kts
24-Oct-20 13:26 33.488763 -118.359924 208 10531ft 125kts
24-Oct-20 13:27 33.454838 -118.379589 208 10064ft 141kts
24-Oct-20 13:28 33.418599 -118.399113 187 9550ft 149kts
24-Oct-20 13:29 33.414732 -118.359776 38 9022ft 159kts
24-Oct-20 13:30 33.448230 -118.325790 38 8551ft 157kts
24-Oct-20 13:31 33.481611 -118.292142 38 8059ft 156kts
24-Oct-20 13:33 33.514972 -118.258573 38 7548ft 156kts
24-Oct-20 13:34 33.548030 -118.225266 38 7055ft 154kts
24-Oct-20 13:35 33.580553 -118.192422 38 6544ft 146kts
24-Oct-20 13:36 33.610997 -118.161796 38 6004ft 140kts
24-Oct-20 13:37 33.640590 -118.131996 38 5496ft 138kts
24-Oct-20 13:38 33.669964 -118.102436 38 4998ft 137kts
24-Oct-20 13:39 33.698396 -118.074017 38 4296ft 115kts
24-Oct-20 13:40 33.721784 -118.050824 39 3486ft 106kts
24-Oct-20 13:41 33.744739 -118.028689 37 2687ft 105kts
24-Oct-20 13:42 33.763119 -118.038790 290 2177ft 97kts
24-Oct-20 13:43 33.768675 -118.066878 276 1899ft 83kts
24-Oct-20 13:44 33.772477 -118.094176 289 1502ft 83kts
24-Oct-20 13:45 33.787092 -118.114890 310 828ft 79kts
24-Oct-20 13:46 33.801948 -118.132310 312 337ft 70kts
24-Oct-20 13:47 33.814433 -118.147147 311 63ft 28kts
24-Oct-20 13:48 33.815064 -118.146999 89 63ft 0kts
24-Oct-20 13:49 33.815064 -118.146978 89 63ft 1kts
24-Oct-20 13:50 33.814161 -118.145119 140 63ft 0kts
24-Oct-20 13:50 33.811150 -118.141679 134 63ft 20kts
24-Oct-20 13:52 33.808243 -118.138104 286 63ft 4kts
24-Oct-20 13:52 33.809281 -118.139690 312 63ft 26kts
24-Oct-20 13:54 33.815143 -118.143800 358 63ft 9kts
24-Oct-20 13:54 33.815847 -118.143541 45 63ft 0kts
24-Oct-20 13:55 33.815847 -118.143541 45 63ft 0kts

Navigation Log

Ident Type
Flight plan parsing failed, navigation log unavailable